Time;durP1;ratioP1;P1;durP2;ratioP2;P2;SDS_P1;SDS_P2;PMS_P1;PMS_P2;Temp;Humidity;BMP_temperature;BMP_pressure;BME280_temperature;BME280_humidity;BME280_pressure;Samples;Min_cycle;Max_cycle;Signal;HPM_P1;HPM_P2
2020/12/18 05:44:32;;;;;;;36.42;14.75;;;;;;;1.60;76.27;101469.34;1725098;80;21356;-36
2020/12/18 05:47:33;;;;;;;27.32;14.45;;;;;;;1.65;76.09;101473.46;1823545;77;22930;-37
2020/12/18 05:50:15;;;;;;;30.88;15.50;;;;;;;1.56;76.17;101482.86;1725025;81;21179;-37
2020/12/18 05:53:07;;;;;;;;;;;;;;;1.54;76.17;101481.02;1759186;81;21145;-37
2020/12/18 05:55:44;;;;;;;32.13;15.48;;;;;;;1.53;76.13;101484.00;1711480;81;20177;-36
2020/12/18 05:58:35;;;;;;;30.15;16.27;;;;;;;1.57;76.21;101480.80;1777229;78;23830;-37
2020/12/18 06:01:46;;;;;;;27.93;15.45;;;;;;;1.60;76.15;101479.66;1806738;78;27793;-36
2020/12/18 06:04:47;;;;;;;25.95;13.60;;;;;;;1.59;76.06;101484.33;1747325;80;21597;-37
2020/12/18 06:07:37;;;;;;;30.85;15.58;;;;;;;1.59;75.99;101477.88;1728696;80;21187;-37
2020/12/18 06:13:56;;;;;;;25.12;14.98;;;;;;;1.56;75.91;101478.10;1759819;80;21319;-36
2020/12/18 06:17:00;;;;;;;23.77;14.75;;;;;;;1.48;76.24;101488.41;1814292;77;22992;-38
2020/12/18 06:23:27;;;;;;;;;;;;;;;1.41;76.33;101489.77;1762123;80;21326;-37
2020/12/18 06:26:33;;;;;;;26.10;14.15;;;;;;;1.37;76.56;101498.13;1704794;81;20397;-36
2020/12/18 06:34:40;;;;;;;31.52;19.15;;;;;;;1.40;76.74;101496.14;1594001;88;21814;-38
2020/12/18 06:38:13;;;;;;;33.00;19.10;;;;;;;1.35;76.97;101499.74;1631767;83;21285;-37
2020/12/18 06:45:17;;;;;;;24.18;15.03;;;;;;;1.48;76.87;101492.28;1764331;77;21166;-36
2020/12/18 06:48:30;;;;;;;28.02;18.52;;;;;;;1.38;76.90;101499.90;1703963;81;21860;-38
2020/12/18 06:51:42;;;;;;;28.20;17.32;;;;;;;1.42;77.15;101495.41;1798619;76;23299;-38
2020/12/18 06:54:32;;;;;;;27.58;17.20;;;;;;;1.41;77.07;101497.51;1759010;78;21186;-38
2020/12/18 06:57:51;;;;;;;24.32;15.55;;;;;;;1.48;77.02;101500.91;1776859;78;21312;-38
2020/12/18 07:01:12;;;;;;;25.05;15.85;;;;;;;1.53;76.81;101498.59;1806787;78;21381;-38
2020/12/18 07:04:55;;;;;;;25.05;15.80;;;;;;;1.45;76.77;101500.75;1797818;78;21190;-38
2020/12/18 07:08:03;;;;;;;28.02;16.40;;;;;;;1.43;77.16;101495.00;1767165;78;21284;31
2020/12/18 07:10:56;;;;;;;23.38;15.25;;;;;;;1.45;77.17;101499.47;1647402;85;21166;-36
2020/12/18 07:22:24;;;;;;;32.28;16.50;;;;;;;1.40;77.30;101515.08;1638683;86;21261;-37
2020/12/18 07:25:34;;;;;;;26.48;15.60;;;;;;;1.43;77.06;101520.80;1635224;86;21581;-36
2020/12/18 08:21:36;;;;;;;30.15;19.87;;;;;;;1.94;75.60;101506.00;1737962;80;22132;-40
2020/12/18 08:24:26;;;;;;;34.08;22.07;;;;;;;1.96;75.41;101508.66;1709367;82;21152;-41
2020/12/18 08:27:01;;;;;;;32.93;21.00;;;;;;;1.93;75.39;101508.52;1711799;82;21160;-41
2020/12/18 08:29:31;;;;;;;33.60;20.12;;;;;;;1.84;75.60;101507.59;1711721;82;21657;-41
2020/12/18 08:32:00;;;;;;;40.28;21.97;;;;;;;1.79;75.86;101506.45;1720594;82;21258;-41
2020/12/18 08:34:30;;;;;;;34.85;21.62;;;;;;;1.82;75.88;101498.89;1716301;82;21367;-42
2020/12/18 08:36:59;;;;;;;42.45;23.85;;;;;;;1.85;75.81;101501.63;1708296;82;21190;-38
2020/12/18 08:39:34;;;;;;;43.52;24.50;;;;;;;1.87;75.74;101494.87;1710617;82;21165;-41
2020/12/18 08:42:02;;;;;;;32.23;20.43;;;;;;;1.88;75.58;101496.64;1713722;82;21147;-41
2020/12/18 08:44:39;;;;;;;26.75;17.40;;;;;;;1.90;75.50;101492.84;1714353;82;21177;-36
2020/12/18 08:47:25;;;;;;;30.27;18.87;;;;;;;1.90;75.45;101488.56;1714357;82;21178;-36
2020/12/18 08:49:57;;;;;;;34.90;19.30;;;;;;;1.91;75.45;101486.88;1708991;81;21207;-41
2020/12/18 08:52:27;;;;;;;29.32;19.12;;;;;;;1.85;75.50;101490.01;1715337;82;21814;-40
2020/12/18 08:55:00;;;;;;;33.98;20.32;;;;;;;1.85;75.77;101491.30;1715613;82;21180;-41
2020/12/18 08:57:29;;;;;;;36.95;20.05;;;;;;;1.89;75.98;101485.91;1719187;82;21180;-36
2020/12/18 09:00:18;;;;;;;29.65;19.07;;;;;;;1.89;75.79;101481.63;1710226;82;21205;-36
2020/12/18 09:02:57;;;;;;;37.05;20.00;;;;;;;1.88;75.76;101484.14;1713080;82;21143;-40
2020/12/18 09:34:19;;;;;;;29.40;19.65;;;;;;;2.06;75.93;101479.95;1759751;79;26625;-40
2020/12/18 09:36:57;;;;;;;34.83;20.65;;;;;;;2.07;75.78;101477.45;1733879;80;21382;-37
2020/12/18 09:39:32;;;;;;;38.25;21.90;;;;;;;2.13;75.62;101484.63;1694779;80;21166;-36
2020/12/18 09:42:03;;;;;;;53.25;30.97;;;;;;;2.20;75.45;101480.67;1734196;80;21175;-36
2020/12/18 09:44:43;;;;;;;60.75;33.45;;;;;;;2.22;75.16;101476.09;1732357;80;21436;-42
2020/12/18 09:47:15;;;;;;;38.00;21.90;;;;;;;2.25;74.99;101474.94;1728249;82;21182;-37
2020/12/18 09:49:44;;;;;;;38.08;21.87;;;;;;;2.26;74.61;101471.95;1726600;80;21179;-36
2020/12/18 09:52:18;;;;;;;36.17;19.48;;;;;;;2.19;74.57;101481.48;1732792;80;21292;-41
2020/12/18 09:54:55;;;;;;;48.58;29.57;;;;;;;2.13;74.90;101479.06;1733834;80;21178;-41
2020/12/18 09:57:34;;;;;;;53.42;29.12;;;;;;;2.15;74.96;101475.70;1732183;82;21622;-37
2020/12/18 10:00:04;;;;;;;45.73;22.75;;;;;;;2.17;74.99;101474.07;1731976;80;21721;-41
2020/12/18 10:02:38;;;;;;;37.20;22.05;;;;;;;2.20;74.98;101473.80;1731396;80;21174;-37
2020/12/18 10:05:07;;;;;;;;;;;;;;;2.25;75.03;101474.05;1733807;80;21147;-36
2020/12/18 10:07:35;;;;;;;51.02;29.10;;;;;;;2.21;74.93;101473.44;1730647;80;20209;-36
2020/12/18 10:10:04;;;;;;;39.50;23.80;;;;;;;2.20;74.99;101474.21;1729207;80;21222;-41
2020/12/18 10:12:36;;;;;;;48.68;28.73;;;;;;;2.24;75.04;101474.87;1730058;82;21677;-41
2020/12/18 10:15:04;;;;;;;68.60;35.25;;;;;;;2.22;75.10;101465.76;1731390;82;21180;-41
2020/12/18 10:17:32;;;;;;;46.70;26.42;;;;;;;2.24;75.12;101464.53;1728953;82;21550;-41
2020/12/18 10:20:00;;;;;;;49.38;29.65;;;;;;;2.24;75.07;101461.55;1730633;80;21158;-41
2020/12/18 10:22:27;;;;;;;58.70;32.38;;;;;;;2.25;74.96;101459.85;1732569;80;21155;-42
2020/12/18 10:24:55;;;;;;;59.73;31.87;;;;;;;2.19;74.96;101463.00;1731170;80;21737;-41
2020/12/18 10:27:23;;;;;;;44.20;26.20;;;;;;;2.11;75.30;101465.59;1731940;80;21249;-39
2020/12/18 10:29:54;;;;;;;53.02;30.50;;;;;;;2.08;75.52;101463.72;1730155;82;21128;-41
2020/12/18 10:32:24;;;;;;;54.42;31.37;;;;;;;2.08;75.53;101460.26;1730074;80;21218;-40
2020/12/18 10:35:00;;;;;;;51.40;29.95;;;;;;;2.11;75.57;101458.73;1731371;80;21163;-41
2020/12/18 10:37:28;;;;;;;50.12;28.60;;;;;;;2.10;75.66;101457.37;1739272;80;21139;-41
2020/12/18 10:39:59;;;;;;;54.13;26.33;;;;;;;2.04;75.62;101455.77;1735926;80;21371;-36
2020/12/18 10:42:27;;;;;;;46.95;26.68;;;;;;;2.03;75.83;101451.38;1734587;80;21123;-40
2020/12/18 10:44:57;;;;;;;58.30;30.62;;;;;;;2.01;75.82;101447.84;1727091;80;21212;-40
2020/12/18 10:47:28;;;;;;;52.58;29.65;;;;;;;1.97;75.86;101443.31;1732488;80;21313;-41
2020/12/18 10:50:03;;;;;;;54.65;29.55;;;;;;;1.93;76.03;101449.14;1729506;80;21159;-41
2020/12/18 10:52:33;;;;;;;52.35;29.63;;;;;;;1.91;76.12;101450.73;1730416;82;21133;-40
2020/12/18 10:55:01;;;;;;;47.75;26.62;;;;;;;1.87;76.10;101443.25;1733100;80;21143;-41
2020/12/18 10:57:29;;;;;;;47.60;26.50;;;;;;;1.78;76.17;101444.92;1732682;80;21175;-40
2020/12/18 11:00:00;;;;;;;45.12;25.37;;;;;;;1.69;76.25;101439.70;1733370;80;21421;-36
2020/12/18 11:02:33;;;;;;;52.53;29.92;;;;;;;1.56;76.29;101439.41;1733300;80;21745;-36
2020/12/18 11:05:01;;;;;;;46.07;26.80;;;;;;;1.47;76.73;101437.64;1735362;80;21184;-41
2020/12/18 11:07:29;;;;;;;53.28;27.30;;;;;;;1.38;77.00;101431.96;1729580;80;21790;-41
2020/12/18 11:09:58;;;;;;;45.75;26.15;;;;;;;1.32;77.51;101435.09;1732980;80;21310;-36
2020/12/18 11:12:29;;;;;;;45.55;25.20;;;;;;;1.29;77.38;101429.78;1734729;80;21174;-41
2020/12/18 11:15:08;;;;;;;48.97;25.83;;;;;;;1.22;77.50;101431.14;1732194;80;21349;-42
2020/12/18 11:17:40;;;;;;;45.15;25.82;;;;;;;1.22;77.50;101431.14;1705405;80;21690;-40
2020/12/18 11:20:08;;;;;;;49.67;26.20;;;;;;;1.20;78.01;101429.27;1733157;80;21179;-41
2020/12/18 11:22:53;;;;;;;46.80;24.98;;;;;;;1.22;78.32;101426.39;1733359;80;21188;-36
2020/12/18 11:25:39;;;;;;;49.60;26.97;;;;;;;1.29;78.60;101425.91;1731982;80;21801;-36
2020/12/18 11:28:07;;;;;;;51.58;27.67;;;;;;;1.40;78.37;101424.81;1725692;80;21158;-36
2020/12/18 11:30:35;;;;;;;53.92;29.40;;;;;;;1.47;78.38;101426.92;1736125;80;21159;-36
2020/12/18 11:33:15;;;;;;;52.20;29.25;;;;;;;1.53;78.25;101427.25;1734482;80;21208;-36
2020/12/18 11:35:43;;;;;;;60.88;32.95;;;;;;;1.62;78.34;101424.27;1715416;81;21971;-37
2020/12/18 11:38:14;;;;;;;58.15;32.70;;;;;;;1.72;78.03;101426.94;1721226;81;21339;-37
2020/12/18 11:40:44;;;;;;;56.95;31.90;;;;;;;1.76;77.87;101427.19;1720070;81;21147;-36
2020/12/18 11:43:14;;;;;;;;;;;;;;;1.80;77.74;101430.44;1702605;81;21186;-37
2020/12/18 11:45:48;;;;;;;51.48;28.98;;;;;;;1.86;77.64;101432.05;1723290;81;20404;-41
2020/12/18 11:49:05;;;;;;;53.73;28.15;;;;;;;1.87;77.14;101429.06;1724203;81;21316;-37
2020/12/18 11:52:14;;;;;;;49.18;26.93;;;;;;;1.90;77.05;101435.66;1725168;81;21402;-40
2020/12/18 11:55:00;;;;;;;50.95;26.97;;;;;;;1.88;76.97;101428.66;1717509;81;21155;-36
2020/12/18 11:57:30;;;;;;;58.92;32.80;;;;;;;1.89;76.94;101425.27;1715945;81;21151;-36
2020/12/18 11:59:59;;;;;;;71.10;34.95;;;;;;;1.85;76.81;101428.06;1724538;81;21203;-35
2020/12/18 12:02:27;;;;;;;60.80;32.17;;;;;;;1.80;76.39;101433.42;1716234;81;21179;-40
2020/12/18 12:04:57;;;;;;;84.92;46.40;;;;;;;1.73;76.34;101424.84;1720188;81;21652;-40
2020/12/18 12:07:24;;;;;;;55.45;30.72;;;;;;;1.64;76.40;101428.23;1722407;81;21749;-35
2020/12/18 12:09:53;;;;;;;45.85;27.00;;;;;;;1.58;76.55;101429.67;1719049;81;21176;-37
2020/12/18 12:12:24;;;;;;;41.15;23.60;;;;;;;1.51;76.60;101430.56;1725517;81;21191;-42
2020/12/18 12:14:54;;;;;;;43.87;24.32;;;;;;;1.42;76.88;101420.62;1717600;81;21657;-40
2020/12/18 12:17:22;;;;;;;43.95;25.52;;;;;;;1.38;77.26;101422.53;1709271;82;21562;-40
2020/12/18 12:19:50;;;;;;;43.98;24.95;;;;;;;1.39;77.38;101416.97;1716037;81;22000;-40
2020/12/18 12:22:18;;;;;;;48.63;27.37;;;;;;;1.38;77.50;101417.38;1719440;81;21171;-41
2020/12/18 12:24:47;;;;;;;42.80;26.02;;;;;;;1.41;77.60;101419.25;1718523;81;21172;-41
2020/12/18 12:27:15;;;;;;;48.60;26.77;;;;;;;1.43;77.76;101418.92;1720236;81;21595;-41
2020/12/18 12:29:43;;;;;;;51.45;28.67;;;;;;;1.48;77.95;101423.93;1718437;81;21674;-41
2020/12/18 12:32:11;;;;;;;45.17;26.73;;;;;;;1.49;78.00;101424.41;1717336;81;21187;-41
2020/12/18 12:34:39;;;;;;;44.98;27.45;;;;;;;1.52;77.94;101422.90;1714012;81;21193;-41
2020/12/18 12:37:07;;;;;;;49.53;27.62;;;;;;;1.54;77.98;101425.55;1732684;81;22007;-41
2020/12/18 12:39:35;;;;;;;49.95;27.22;;;;;;;1.58;78.02;101431.38;1723401;81;21152;-41
2020/12/18 12:42:04;;;;;;;54.03;27.75;;;;;;;1.64;77.85;101433.40;1724002;82;21168;-42
2020/12/18 12:44:32;;;;;;;46.37;26.12;;;;;;;1.66;77.80;101430.48;1722611;81;21176;-42
2020/12/18 12:47:02;;;;;;;47.50;25.92;;;;;;;1.70;77.61;101442.75;1719126;82;21608;-42
2020/12/18 12:49:30;;;;;;;49.30;27.70;;;;;;;1.68;77.16;101437.52;1714314;82;21164;-41
2020/12/18 12:51:58;;;;;;;50.33;27.62;;;;;;;1.64;77.34;101442.43;1709747;82;21203;-41
2020/12/18 12:54:26;;;;;;;49.30;27.93;;;;;;;1.60;77.52;101440.95;1710728;82;21497;-39
2020/12/18 12:56:54;;;;;;;47.13;24.37;;;;;;;1.62;77.82;101436.28;1707287;82;21198;-40
2020/12/18 12:59:22;;;;;;;44.83;26.48;;;;;;;1.61;77.53;101440.55;1718587;82;21156;-40
2020/12/18 13:01:50;;;;;;;40.78;24.50;;;;;;;1.55;77.38;101437.64;1723564;81;21921;-41
2020/12/18 13:04:20;;;;;;;50.33;26.77;;;;;;;1.47;77.60;101439.81;1724315;81;21964;-40
2020/12/18 13:06:48;;;;;;;51.55;28.47;;;;;;;1.40;78.03;101445.85;1716921;82;21561;-38
2020/12/18 13:09:16;;;;;;;45.10;25.95;;;;;;;1.35;78.56;101444.70;1722545;81;21456;-37
2020/12/18 13:11:44;;;;;;;42.13;23.87;;;;;;;1.32;78.74;101445.41;1740321;81;21140;-41
2020/12/18 13:14:12;;;;;;;56.10;28.65;;;;;;;1.30;78.75;101450.48;1720370;81;21631;-41
2020/12/18 13:16:40;;;;;;;55.23;30.95;;;;;;;1.28;78.83;101448.64;1716132;81;21179;-42
2020/12/18 13:19:10;;;;;;;59.70;32.63;;;;;;;1.26;79.15;101457.55;1705147;82;21682;-38
2020/12/18 13:21:37;;;;;;;68.47;37.20;;;;;;;1.28;79.44;101455.97;1708695;82;21147;-37
2020/12/18 13:26:43;;;;;;;53.25;29.42;;;;;;;1.34;79.30;101450.27;1754193;79;22327;-38
2020/12/18 13:29:11;;;;;;;45.15;24.55;;;;;;;1.31;79.36;101455.24;1714256;83;21167;-42
2020/12/18 13:31:38;;;;;;;55.28;28.20;;;;;;;1.32;79.35;101460.47;1706701;83;21636;-37
2020/12/18 13:34:06;;;;;;;54.25;28.73;;;;;;;1.31;79.00;101463.86;1718818;83;21194;-38
2020/12/18 13:36:37;;;;;;;45.55;26.62;;;;;;;1.26;79.06;101464.00;1717371;83;21217;-38
2020/12/18 13:39:04;;;;;;;69.45;33.18;;;;;;;1.23;79.26;101457.81;1715069;83;21578;-38
2020/12/18 13:41:32;;;;;;;61.85;33.60;;;;;;;1.23;79.41;101458.69;1713424;83;21218;-38
2020/12/18 13:44:00;;;;;;;74.40;36.90;;;;;;;1.27;79.63;101458.04;1681843;83;21159;-37
2020/12/18 13:46:29;;;;;;;58.00;30.02;;;;;;;1.32;79.74;101458.30;1715378;83;21167;-38
2020/12/18 13:48:57;;;;;;;53.60;31.10;;;;;;;1.35;79.55;101454.62;1723745;82;21613;-37
2020/12/18 13:51:25;;;;;;;62.08;28.42;;;;;;;1.41;79.66;101452.38;1721741;83;21174;-37
2020/12/18 13:53:53;;;;;;;52.25;29.70;;;;;;;1.47;79.64;101455.69;1707785;83;21484;-40
2020/12/18 13:56:22;;;;;;;47.55;27.77;;;;;;;1.50;79.50;101459.31;1711328;83;21207;-37
2020/12/18 14:05:12;;;;;;;98.10;45.33;;;;;;;1.62;79.49;101451.35;1818133;79;22465;-35
2020/12/18 14:07:40;;;;;;;92.33;44.65;;;;;;;1.64;79.36;101450.17;1767161;80;21171;-36
2020/12/18 14:10:09;;;;;;;71.35;38.33;;;;;;;1.69;79.29;101453.48;1721456;83;21187;-41
2020/12/18 14:12:38;;;;;;;69.17;36.60;;;;;;;1.76;79.17;101452.12;1719060;82;21219;-40
2020/12/18 14:15:06;;;;;;;56.90;31.70;;;;;;;1.78;78.85;101447.91;1705888;84;21696;-40
2020/12/18 14:17:35;;;;;;;53.78;30.45;;;;;;;1.77;78.75;101448.72;1709054;83;21201;-41
2020/12/18 14:20:03;;;;;;;50.60;28.17;;;;;;;1.76;78.71;101448.24;1708371;83;21234;-41
2020/12/18 14:22:31;;;;;;;51.98;29.75;;;;;;;1.76;78.60;101448.24;1712870;83;21803;-36
2020/12/18 14:24:59;;;;;;;66.62;36.33;;;;;;;1.77;78.51;101446.14;1705819;84;21196;-36
2020/12/18 14:27:27;;;;;;;88.92;44.25;;;;;;;1.75;78.59;101443.48;1706102;83;21183;-41
2020/12/18 14:29:55;;;;;;;98.00;51.18;;;;;;;1.77;78.58;101440.98;1709593;82;21192;-41
2020/12/18 14:32:22;;;;;;;114.75;62.03;;;;;;;1.76;78.54;101441.39;1710378;83;21195;-41
2020/12/18 14:34:50;;;;;;;112.22;59.48;;;;;;;1.76;78.56;101439.21;1705729;84;21218;-41
2020/12/18 14:37:18;;;;;;;106.43;56.53;;;;;;;1.77;78.59;101441.86;1717074;83;21182;-37
2020/12/18 14:39:45;;;;;;;98.10;55.78;;;;;;;1.80;78.62;101442.45;1706616;83;21183;-36
2020/12/18 14:42:13;;;;;;;179.42;72.55;;;;;;;1.83;78.56;101437.44;1712747;83;21176;-38
2020/12/18 14:44:41;;;;;;;167.70;73.37;;;;;;;1.86;78.46;101440.20;1722559;83;21190;-36
2020/12/18 14:47:09;;;;;;;235.65;92.35;;;;;;;1.89;78.35;101444.21;1722407;83;21227;-40
2020/12/18 14:49:36;;;;;;;205.92;87.53;;;;;;;1.90;78.23;101442.11;1676060;84;21236;-36
2020/12/18 14:52:06;;;;;;;151.22;71.33;;;;;;;1.89;78.19;101440.34;1705493;84;21222;-41
2020/12/18 14:54:41;;;;;;;92.75;46.30;;;;;;;1.86;78.30;101436.33;1711013;83;21648;-36
2020/12/18 14:57:09;;;;;;;74.27;38.35;;;;;;;1.86;78.28;101442.38;1705650;84;21204;-41
2020/12/18 14:59:37;;;;;;;101.47;47.95;;;;;;;1.86;78.31;101440.20;1705679;84;21623;-37
2020/12/18 15:02:07;;;;;;;87.05;42.33;;;;;;;1.85;78.23;101436.70;1705935;84;21141;-41
2020/12/18 15:04:36;;;;;;;98.22;43.75;;;;;;;1.85;78.21;101433.23;1677375;84;21188;-41
2020/12/18 15:07:05;;;;;;;81.45;43.05;;;;;;;1.82;78.33;101436.55;1704486;84;21673;-41
2020/12/18 15:09:32;;;;;;;59.85;33.05;;;;;;;1.80;78.25;101429.55;1690304;83;21562;-41
2020/12/18 15:12:03;;;;;;;58.58;29.65;;;;;;;1.76;78.35;101437.52;1687205;85;21241;-40
2020/12/18 15:14:31;;;;;;;54.27;29.23;;;;;;;1.68;78.25;101428.49;1721721;82;21226;-40
2020/12/18 15:16:59;;;;;;;50.10;28.45;;;;;;;1.62;78.65;101434.98;1721389;83;21610;-40
2020/12/18 15:19:27;;;;;;;53.02;30.32;;;;;;;1.57;78.84;101438.23;1749028;82;21191;-37
2020/12/18 15:21:55;;;;;;;52.45;29.70;;;;;;;1.52;79.04;101432.33;1751010;82;21746;-41
2020/12/18 15:24:23;;;;;;;58.20;30.92;;;;;;;1.49;79.32;101434.33;1750597;81;21167;-36
2020/12/18 15:26:51;;;;;;;53.35;28.25;;;;;;;1.48;79.51;101435.54;1751095;82;21202;-40
2020/12/18 15:29:20;;;;;;;46.73;27.27;;;;;;;1.48;79.33;101429.98;1745943;82;21203;-36
2020/12/18 15:31:48;;;;;;;36.53;21.10;;;;;;;1.45;79.29;101428.53;1750974;82;21659;-36
2020/12/18 15:34:16;;;;;;;35.48;21.23;;;;;;;1.40;79.11;101424.81;1751210;81;21223;-36
2020/12/18 15:36:46;;;;;;;38.67;21.75;;;;;;;1.31;79.04;101418.73;1751326;82;21172;-36
2020/12/18 15:39:13;;;;;;;40.08;23.35;;;;;;;1.23;79.52;101420.42;1726492;82;21149;-41
2020/12/18 15:41:41;;;;;;;43.05;23.75;;;;;;;1.20;79.78;101421.13;1721249;83;21174;-40
2020/12/18 15:44:09;;;;;;;39.63;22.32;;;;;;;1.20;79.92;101428.86;1721542;82;21214;-36
2020/12/18 15:46:37;;;;;;;40.25;23.30;;;;;;;1.20;79.89;101425.39;1721584;83;21251;-35
2020/12/18 15:49:04;;;;;;;43.08;24.15;;;;;;;1.18;79.99;101424.03;1721462;83;21226;-36
2020/12/18 15:51:32;;;;;;;44.30;26.87;;;;;;;1.18;79.86;101427.89;1721332;83;21632;-40
2020/12/18 15:54:00;;;;;;;43.00;26.60;;;;;;;1.16;79.95;101423.44;1720957;82;21749;-36
